Time;durP1;ratioP1;P1;durP2;ratioP2;P2;SDS_P1;SDS_P2;PMS_P1;PMS_P2;Temp;Humidity;BMP_temperature;BMP_pressure;BME280_temperature;BME280_humidity;BME280_pressure;Samples;Min_cycle;Max_cycle;Signal;HPM_P1;HPM_P2
2022/04/22 00:01:51;;;;;;;20.37;11.97;;;12.90;28.60;;;;;;5097833;28;20778;-67
2022/04/22 00:04:16;;;;;;;18.17;11.70;;;12.80;28.70;;;;;;5093895;28;20207;-66
2022/04/22 00:06:42;;;;;;;17.17;12.10;;;13.00;28.90;;;;;;5093582;28;20198;-67
2022/04/22 00:09:08;;;;;;;19.80;11.57;;;13.00;28.50;;;;;;5093500;28;20170;-67
2022/04/22 00:11:33;;;;;;;18.27;12.30;;;12.80;29.00;;;;;;5092860;28;20173;-67
2022/04/22 00:14:03;;;;;;;20.20;12.60;;;12.70;29.50;;;;;;5102001;28;20234;-67
2022/04/22 00:16:31;;;;;;;18.47;12.27;;;12.60;29.80;;;;;;5093416;28;20174;-67
2022/04/22 00:18:57;;;;;;;16.63;11.50;;;12.70;30.40;;;;;;5099321;28;20523;-66
2022/04/22 00:21:23;;;;;;;18.03;11.63;;;12.80;29.20;;;;;;5101122;28;20408;-66
2022/04/22 00:23:50;;;;;;;16.60;11.57;;;12.50;29.80;;;;;;5096511;28;20444;-65
2022/04/22 00:26:16;;;;;;;17.60;12.48;;;12.40;30.50;;;;;;5103196;28;20170;-66
2022/04/22 00:28:42;;;;;;;20.63;11.70;;;12.50;29.90;;;;;;5108255;28;20201;-65
2022/04/22 00:31:08;;;;;;;18.07;12.10;;;12.60;29.30;;;;;;5103455;28;20807;-66
2022/04/22 00:33:33;;;;;;;21.03;12.30;;;12.40;30.80;;;;;;5092813;28;20226;-67
2022/04/22 00:35:59;;;;;;;19.67;12.60;;;12.30;30.50;;;;;;5093105;28;20178;-66
2022/04/22 00:38:25;;;;;;;20.30;13.00;;;12.10;31.10;;;;;;5105451;28;20192;-66
2022/04/22 00:40:55;;;;;;;16.97;11.50;;;12.20;30.60;;;;;;5097374;28;20487;-66
2022/04/22 00:43:22;;;;;;;20.83;13.38;;;12.20;30.00;;;;;;5101998;28;20178;-66
2022/04/22 00:45:50;;;;;;;20.27;12.17;;;12.10;31.40;;;;;;5097338;28;20195;-66
2022/04/22 00:48:17;;;;;;;18.80;11.67;;;12.00;31.50;;;;;;5108819;28;20432;-66
2022/04/22 00:50:43;;;;;;;18.87;12.43;;;11.90;32.20;;;;;;5106343;28;20823;-68
2022/04/22 00:53:09;;;;;;;19.92;12.77;;;11.90;32.10;;;;;;5092576;28;20927;-65
2022/04/22 00:55:39;;;;;;;25.47;13.47;;;11.90;31.70;;;;;;5092459;28;20206;-65
2022/04/22 00:58:05;;;;;;;31.07;13.03;;;11.80;32.50;;;;;;5092886;28;20417;-65
2022/04/22 01:00:31;;;;;;;21.53;13.40;;;12.00;31.30;;;;;;5098909;28;20489;-65
2022/04/22 01:02:57;;;;;;;21.70;13.03;;;12.00;31.20;;;;;;5109125;28;20422;-66
2022/04/22 01:10:53;;;;;;;19.10;13.57;;;12.30;31.00;;;;;;5109501;28;20956;-66
2022/04/22 01:13:20;;;;;;;17.33;12.53;;;12.20;30.70;;;;;;5090096;28;20444;-66
2022/04/22 01:15:46;;;;;;;19.25;13.38;;;12.20;32.50;;;;;;5100301;28;20228;-65
2022/04/22 01:18:13;;;;;;;22.57;12.90;;;12.10;32.00;;;;;;5103545;28;20649;-66
2022/04/22 01:20:39;;;;;;;19.77;13.20;;;12.20;30.90;;;;;;5104780;28;20466;-66
2022/04/22 01:23:05;;;;;;;20.10;12.97;;;12.20;30.90;;;;;;5099526;28;20518;-66
2022/04/22 01:25:31;;;;;;;20.60;12.30;;;12.20;31.20;;;;;;5111084;28;20559;-66
2022/04/22 01:27:57;;;;;;;21.63;13.00;;;12.20;31.30;;;;;;5103841;28;20405;-66
2022/04/22 01:30:24;;;;;;;20.08;13.30;;;12.10;31.70;;;;;;5093827;28;20269;-66
2022/04/22 01:32:56;;;;;;;17.73;12.70;;;11.90;32.20;;;;;;5109792;28;20188;-66
2022/04/22 01:35:24;;;;;;;20.13;12.77;;;12.00;32.20;;;;;;5103637;28;20287;-65
2022/04/22 01:37:50;;;;;;;19.95;12.32;;;12.00;31.60;;;;;;5112263;28;20619;-65
2022/04/22 01:40:16;;;;;;;22.40;13.30;;;11.90;32.10;;;;;;5112236;28;20277;-65
2022/04/22 01:42:42;;;;;;;18.47;12.80;;;12.00;31.70;;;;;;5102248;28;20988;-65
2022/04/22 01:45:09;;;;;;;19.75;12.88;;;12.10;31.60;;;;;;5092741;28;20957;-65
2022/04/22 01:47:35;;;;;;;18.65;13.10;;;11.90;32.50;;;;;;5091786;28;20186;-66
2022/04/22 01:50:02;;;;;;;20.33;13.43;;;11.90;31.90;;;;;;5099960;28;20181;-65
2022/04/22 01:52:27;;;;;;;22.02;12.75;;;11.90;31.70;;;;;;5097742;28;20489;-67
2022/04/22 01:54:55;;;;;;;27.10;13.67;;;11.70;32.90;;;;;;5102548;28;20217;-65
2022/04/22 01:57:21;;;;;;;23.15;13.55;;;11.40;34.80;;;;;;5094231;28;20184;-65
2022/04/22 01:59:48;;;;;;;19.77;13.10;;;11.40;34.30;;;;;;5103372;28;20214;-65
2022/04/22 02:02:14;;;;;;;18.83;12.40;;;11.40;33.60;;;;;;5093425;28;20169;-66
2022/04/22 02:04:40;;;;;;;22.63;13.98;;;11.40;33.60;;;;;;5106699;28;20216;-65
2022/04/22 02:07:06;;;;;;;17.57;12.70;;;11.30;33.60;;;;;;5093650;28;20189;-65
2022/04/22 02:09:32;;;;;;;19.60;13.70;;;11.40;33.60;;;;;;5104667;28;20488;-65
2022/04/22 02:11:58;;;;;;;19.93;13.40;;;11.50;34.00;;;;;;5093312;28;20181;-67
2022/04/22 02:14:25;;;;;;;23.83;14.30;;;11.20;34.30;;;;;;5087958;28;20487;-65
2022/04/22 02:16:51;;;;;;;20.30;13.32;;;11.00;35.10;;;;;;5107286;28;20169;-65
2022/04/22 02:19:17;;;;;;;23.02;13.85;;;11.10;34.40;;;;;;5098747;28;20220;-65
2022/04/22 02:21:43;;;;;;;23.35;14.18;;;11.10;34.90;;;;;;5106257;28;20172;-65
2022/04/22 02:24:09;;;;;;;21.42;14.68;;;10.80;35.50;;;;;;5108614;28;20280;-64
2022/04/22 02:29:20;;;;;;;24.55;13.90;;;10.80;35.10;;;;;;5111811;28;20270;-65
2022/04/22 02:31:46;;;;;;;22.85;14.57;;;10.70;36.40;;;;;;5111290;28;20639;-65
2022/04/22 02:34:12;;;;;;;23.23;15.20;;;10.60;36.00;;;;;;5108619;28;20247;-64
2022/04/22 02:36:37;;;;;;;27.10;16.47;;;10.40;35.40;;;;;;5103069;28;20438;-65
2022/04/22 02:39:03;;;;;;;25.90;16.60;;;10.40;35.70;;;;;;5111245;28;20202;-65
2022/04/22 02:46:57;;;;;;;26.30;16.73;;;10.40;35.20;;;;;;5100848;28;20181;-66
2022/04/22 02:49:22;;;;;;;32.30;17.23;;;10.30;35.10;;;;;;5099274;28;20178;-65
2022/04/22 02:51:48;;;;;;;20.93;14.73;;;10.20;36.30;;;;;;5098857;28;20186;-65
2022/04/22 02:54:13;;;;;;;26.87;16.07;;;10.10;36.00;;;;;;5092008;28;20281;-65
2022/04/22 02:56:39;;;;;;;29.53;15.50;;;10.00;36.10;;;;;;5098480;28;20187;-65
2022/04/22 02:59:05;;;;;;;31.83;16.87;;;10.00;36.10;;;;;;5100481;28;20211;-66
2022/04/22 03:01:33;;;;;;;27.30;15.90;;;10.00;36.60;;;;;;5111011;28;20176;-66
2022/04/22 03:03:58;;;;;;;31.27;16.88;;;10.00;36.40;;;;;;5101349;28;20265;-65
2022/04/22 03:06:26;;;;;;;25.40;16.77;;;10.00;36.00;;;;;;5094623;28;20583;-65
2022/04/22 03:08:52;;;;;;;29.15;15.30;;;9.90;37.40;;;;;;5098493;28;20182;-65
2022/04/22 03:11:20;;;;;;;27.77;15.75;;;9.80;37.70;;;;;;5110193;28;20190;-65
2022/04/22 03:13:46;;;;;;;23.70;15.23;;;9.80;37.10;;;;;;5110190;28;20162;-65
2022/04/22 03:16:11;;;;;;;26.70;15.60;;;9.70;37.60;;;;;;5097622;28;20270;-66
2022/04/22 03:18:37;;;;;;;26.57;14.97;;;9.60;37.50;;;;;;5096659;28;20224;-65
2022/04/22 03:21:03;;;;;;;25.93;16.10;;;9.50;38.20;;;;;;5090480;28;20225;-66
2022/04/22 03:23:28;;;;;;;28.60;15.57;;;9.60;38.60;;;;;;5090199;28;20163;-66
2022/04/22 03:25:54;;;;;;;25.20;15.30;;;9.50;38.80;;;;;;5094157;28;20170;-65
2022/04/22 03:28:21;;;;;;;23.65;14.63;;;9.40;38.70;;;;;;5100473;28;20182;-65
2022/04/22 03:30:47;;;;;;;27.48;15.57;;;9.40;38.70;;;;;;5114382;28;20182;-65
2022/04/22 03:33:12;;;;;;;24.30;14.50;;;9.40;38.60;;;;;;5103267;28;20265;-65
2022/04/22 03:35:38;;;;;;;23.37;13.87;;;9.30;38.80;;;;;;5095205;28;20826;-66
2022/04/22 03:38:04;;;;;;;25.97;15.00;;;9.30;39.30;;;;;;5110128;28;20186;-65
2022/04/22 03:40:30;;;;;;;22.27;15.37;;;9.30;39.00;;;;;;5094935;28;20218;-65
2022/04/22 03:42:55;;;;;;;22.30;15.10;;;9.30;38.60;;;;;;5102633;28;20245;-65
2022/04/22 03:45:22;;;;;;;23.50;15.67;;;9.30;38.90;;;;;;5100792;28;20229;-65
2022/04/22 03:47:48;;;;;;;28.15;16.58;;;9.40;39.30;;;;;;5103759;28;20218;-65
2022/04/22 03:50:13;;;;;;;23.73;15.40;;;9.20;39.00;;;;;;5104816;28;20185;-65
2022/04/22 03:52:39;;;;;;;29.57;17.13;;;9.30;39.40;;;;;;5114028;28;20404;-65
2022/04/22 03:55:06;;;;;;;24.97;15.80;;;9.20;39.10;;;;;;5114010;28;20221;-65
2022/04/22 03:58:17;;;;;;;25.63;15.82;;;9.20;39.20;;;;;;5105086;28;20246;-65
2022/04/22 04:00:18;;;;;;;37.08;16.05;;;9.10;39.40;;;;;;5083266;28;20222;-65
2022/04/22 04:02:44;;;;;;;23.50;15.95;;;9.10;39.70;;;;;;5105200;28;20212;-65
2022/04/22 04:05:10;;;;;;;29.37;15.70;;;9.30;39.40;;;;;;5093360;28;20600;-65
2022/04/22 04:07:35;;;;;;;30.60;17.83;;;9.30;39.20;;;;;;5093582;28;20212;-65
2022/04/22 04:18:13;;;;;;;25.48;16.75;;;9.10;41.20;;;;;;5093447;28;20553;-65
2022/04/22 04:23:23;;;;;;;28.98;17.42;;;9.10;40.50;;;;;;5105405;28;20214;-66
2022/04/22 04:25:50;;;;;;;29.50;17.83;;;9.10;40.30;;;;;;5105464;28;20623;-65
2022/04/22 04:28:16;;;;;;;30.50;17.10;;;9.20;40.00;;;;;;5103411;28;20185;-65
2022/04/22 04:30:43;;;;;;;30.88;17.20;;;9.30;38.60;;;;;;5110905;28;20548;-65
2022/04/22 04:33:10;;;;;;;27.58;18.23;;;9.40;38.60;;;;;;5103041;28;20220;-66
2022/04/22 04:35:38;;;;;;;26.77;17.05;;;9.30;39.40;;;;;;5092386;28;20727;-65
2022/04/22 04:38:05;;;;;;;31.23;18.42;;;9.30;38.70;;;;;;5094153;28;20593;-65
2022/04/22 04:40:32;;;;;;;55.97;18.55;;;9.30;38.90;;;;;;5093271;28;20903;-65
2022/04/22 04:42:58;;;;;;;32.20;19.15;;;9.20;39.60;;;;;;5099761;28;20280;-67
2022/04/22 04:45:24;;;;;;;27.37;18.30;;;9.20;39.70;;;;;;5113424;28;20248;-67
2022/04/22 04:47:49;;;;;;;30.13;18.90;;;9.20;39.40;;;;;;5112878;28;20431;-65
2022/04/22 04:50:15;;;;;;;29.00;19.73;;;9.30;39.30;;;;;;5113555;28;20467;-65
2022/04/22 04:52:41;;;;;;;30.33;19.90;;;9.30;40.30;;;;;;5105342;28;20187;-65
2022/04/22 04:55:09;;;;;;;33.50;18.85;;;9.20;39.20;;;;;;5095214;28;20195;-65
2022/04/22 04:57:36;;;;;;;34.30;18.58;;;9.30;40.20;;;;;;5106419;28;20182;-65
2022/04/22 05:00:05;;;;;;;38.83;18.85;;;9.20;39.40;;;;;;5111912;28;20198;-65
2022/04/22 05:02:31;;;;;;;28.92;18.42;;;9.30;39.70;;;;;;5100493;28;20252;-66
2022/04/22 05:04:57;;;;;;;33.97;18.30;;;9.40;39.10;;;;;;5100505;28;20206;-66
2022/04/22 05:07:22;;;;;;;28.90;17.47;;;9.40;39.30;;;;;;5112580;28;20555;-66
2022/04/22 05:09:48;;;;;;;33.20;19.10;;;9.50;40.00;;;;;;5112795;28;20170;-65
2022/04/22 05:12:14;;;;;;;31.87;18.43;;;9.50;38.90;;;;;;5111773;28;20223;-66
2022/04/22 05:14:39;;;;;;;33.23;19.53;;;9.60;39.30;;;;;;5097579;28;20561;-65
2022/04/22 05:17:05;;;;;;;33.07;17.70;;;9.60;38.70;;;;;;5109458;28;20257;-65
2022/04/22 05:19:30;;;;;;;28.37;18.23;;;9.70;38.20;;;;;;5102484;28;20293;-65
2022/04/22 05:21:56;;;;;;;34.87;18.93;;;9.70;37.90;;;;;;5102750;28;20186;-65
2022/04/22 05:24:22;;;;;;;32.60;18.83;;;9.80;38.30;;;;;;5100289;28;20191;-65
2022/04/22 05:26:48;;;;;;;40.80;24.20;;;9.90;39.10;;;;;;5094358;28;20180;-65
2022/04/22 05:34:42;;;;;;;27.70;18.83;;;10.30;36.10;;;;;;5102320;28;20228;-66
2022/04/22 05:37:08;;;;;;;34.03;20.07;;;10.60;37.00;;;;;;5110394;28;20179;-66
2022/04/22 05:39:33;;;;;;;32.30;19.07;;;10.70;35.20;;;;;;5112044;28;20196;-66
2022/04/22 05:42:02;;;;;;;28.50;17.73;;;10.80;36.50;;;;;;5111919;28;20162;-66
2022/04/22 05:44:28;;;;;;;30.67;18.70;;;11.00;34.40;;;;;;5104733;28;20346;-66
2022/04/22 05:46:54;;;;;;;33.88;20.02;;;11.20;33.40;;;;;;5091726;28;20579;-65
2022/04/22 05:49:20;;;;;;;31.77;19.53;;;11.00;33.90;;;;;;5073389;28;20264;-65
2022/04/22 05:51:45;;;;;;;30.30;18.73;;;10.90;34.20;;;;;;5102511;28;20321;-66
2022/04/22 05:54:11;;;;;;;27.13;18.43;;;10.90;34.50;;;;;;5108444;28;20541;-67
2022/04/22 05:56:37;;;;;;;31.87;19.90;;;11.10;34.70;;;;;;5097164;28;20668;-66
2022/04/22 05:59:03;;;;;;;33.17;21.23;;;11.30;34.90;;;;;;5111831;28;20165;-66
2022/04/22 06:01:29;;;;;;;40.78;22.00;;;11.20;35.30;;;;;;5106292;28;20642;-66
2022/04/22 06:03:55;;;;;;;37.53;20.67;;;11.50;35.70;;;;;;5099352;28;20262;-65
2022/04/22 06:06:20;;;;;;;38.47;21.47;;;11.20;35.50;;;;;;5105418;28;20174;-66
2022/04/22 06:11:32;;;;;;;36.20;21.23;;;11.40;34.20;;;;;;5095547;28;20188;-66
2022/04/22 06:13:57;;;;;;;38.15;22.70;;;11.80;34.00;;;;;;5091259;28;20194;-65
2022/04/22 06:16:23;;;;;;;69.67;22.10;;;11.90;34.10;;;;;;5101178;28;20602;-66
2022/04/22 06:18:49;;;;;;;45.63;22.17;;;11.90;34.10;;;;;;5107101;28;20594;-66
2022/04/22 06:21:14;;;;;;;43.63;23.80;;;11.30;35.90;;;;;;5110931;28;20203;-66
2022/04/22 06:23:40;;;;;;;47.10;24.47;;;11.10;37.50;;;;;;5101307;28;20209;-68
2022/04/22 06:26:06;;;;;;;43.87;25.50;;;11.30;37.10;;;;;;5099180;28;20182;-63
2022/04/22 06:28:33;;;;;;;40.93;24.97;;;11.50;38.50;;;;;;5097952;28;20201;-66
2022/04/22 06:30:59;;;;;;;44.63;25.60;;;12.00;36.00;;;;;;5091173;28;20583;-64
2022/04/22 06:33:25;;;;;;;47.27;26.43;;;12.20;35.30;;;;;;5091075;28;20404;-67
2022/04/22 06:35:51;;;;;;;40.70;25.70;;;12.50;34.70;;;;;;5090916;28;20217;-66
2022/04/22 06:38:18;;;;;;;41.77;26.10;;;12.60;34.60;;;;;;5098156;28;20930;-68
2022/04/22 06:46:16;;;;;;;47.50;26.60;;;12.60;34.80;;;;;;5092203;28;20865;-66
2022/04/22 06:48:43;;;;;;;43.10;25.13;;;12.70;34.40;;;;;;5101756;28;20466;-66
2022/04/22 06:51:09;;;;;;;49.67;26.73;;;12.20;34.40;;;;;;5100270;28;20427;-67
2022/04/22 06:53:36;;;;;;;44.50;27.07;;;11.90;36.40;;;;;;5099317;28;20411;-66
2022/04/22 06:56:03;;;;;;;47.87;27.00;;;11.80;36.60;;;;;;5099246;28;20945;-66
2022/04/22 06:58:37;;;;;;;43.93;27.43;;;11.20;39.20;;;;;;5098789;28;20461;-67
2022/04/22 07:01:03;;;;;;;40.40;26.23;;;11.70;38.00;;;;;;5102414;28;20534;-66
2022/04/22 07:03:29;;;;;;;46.00;27.20;;;11.20;39.50;;;;;;5101933;28;20449;-66
2022/04/22 07:05:55;;;;;;;47.33;27.07;;;11.80;37.90;;;;;;5096005;28;20413;-65
2022/04/22 07:08:21;;;;;;;55.60;29.83;;;12.20;36.20;;;;;;5098164;28;20205;-64
2022/04/22 07:10:49;;;;;;;43.97;27.67;;;12.00;36.70;;;;;;5097404;28;20429;-65
2022/04/22 07:13:19;;;;;;;47.33;27.50;;;12.20;36.10;;;;;;5087227;28;20694;-66
2022/04/22 07:15:46;;;;;;;39.83;25.30;;;12.70;34.90;;;;;;5115083;28;20556;-67
2022/04/22 07:18:13;;;;;;;49.00;28.10;;;12.70;34.90;;;;;;5098494;28;20963;-67
2022/04/22 07:20:40;;;;;;;45.77;26.90;;;12.80;35.00;;;;;;5098927;28;20470;-67
2022/04/22 07:23:05;;;;;;;46.10;28.50;;;12.80;35.00;;;;;;5096394;28;20925;-68
2022/04/22 07:25:31;;;;;;;47.13;27.70;;;13.20;33.90;;;;;;5085984;28;20588;-66
2022/04/22 07:27:58;;;;;;;53.43;27.93;;;13.20;33.50;;;;;;5099112;28;20421;-66
2022/04/22 07:30:25;;;;;;;43.93;27.13;;;12.90;33.50;;;;;;5094330;28;20163;-66
2022/04/22 07:32:51;;;;;;;43.77;25.87;;;11.80;37.10;;;;;;5102353;28;20816;-66
2022/04/22 07:35:19;;;;;;;48.50;27.87;;;11.40;40.00;;;;;;5102320;28;20958;-67
2022/04/22 07:37:47;;;;;;;47.37;29.37;;;11.70;38.50;;;;;;5096554;28;20449;-66
2022/04/22 07:40:14;;;;;;;45.70;26.70;;;12.40;38.00;;;;;;5113352;28;20464;-67
2022/04/22 07:46:46;;;;;;;46.00;29.03;;;11.40;39.20;;;;;;5106131;28;20511;-65
2022/04/22 07:48:11;;;;;;;42.87;27.27;;;12.20;38.20;;;;;;5104152;28;20888;-65
2022/04/22 07:50:37;;;;;;;47.57;28.60;;;12.40;38.80;;;;;;5080383;28;20490;-65
2022/04/22 07:53:03;;;;;;;50.30;27.70;;;12.70;36.80;;;;;;5103485;28;20542;-66
2022/04/22 07:55:29;;;;;;;46.07;29.47;;;12.60;37.00;;;;;;5101296;28;20202;-66
2022/04/22 07:57:57;;;;;;;53.83;29.20;;;12.90;35.80;;;;;;5104539;28;20662;-68
2022/04/22 08:00:22;;;;;;;54.93;29.60;;;12.70;35.90;;;;;;5112954;28;20462;-68
2022/04/22 08:02:49;;;;;;;52.87;31.60;;;11.80;38.40;;;;;;5106076;27;20439;-67
2022/04/22 08:05:15;;;;;;;57.00;29.10;;;11.90;40.10;;;;;;5105349;28;20210;-68
2022/04/22 08:07:41;;;;;;;47.83;29.60;;;12.60;37.30;;;;;;5096209;28;20519;-68
2022/04/22 08:10:07;;;;;;;53.17;30.60;;;12.80;35.90;;;;;;5094866;28;20538;-68
2022/04/22 08:12:33;;;;;;;46.47;30.10;;;12.90;36.30;;;;;;5093643;28;20416;-68
2022/04/22 08:15:00;;;;;;;44.53;28.93;;;13.40;34.70;;;;;;5101411;28;20503;-68
2022/04/22 08:17:26;;;;;;;46.00;28.83;;;13.70;33.00;;;;;;5110477;28;20490;-68
2022/04/22 08:19:52;;;;;;;45.30;27.97;;;15.50;37.30;;;;;;5112809;28;20448;-69
2022/04/22 08:22:18;;;;;;;50.40;28.57;;;13.00;37.40;;;;;;5101766;28;20438;-68
2022/04/22 08:24:43;;;;;;;41.27;26.33;;;13.60;34.00;;;;;;5105797;28;20200;-68
2022/04/22 08:27:10;;;;;;;44.50;27.87;;;13.70;34.20;;;;;;5101114;28;20578;-68
2022/04/22 08:29:37;;;;;;;52.07;26.80;;;14.30;31.90;;;;;;5108195;28;20175;-70
2022/04/22 08:32:03;;;;;;;44.90;27.20;;;14.60;31.80;;;;;;5095933;28;20422;-68
2022/04/22 08:34:29;;;;;;;41.73;27.77;;;14.70;31.40;;;;;;5100578;28;20468;-68
2022/04/22 08:36:55;;;;;;;45.73;28.50;;;14.80;30.80;;;;;;5100072;28;20565;-66
2022/04/22 08:39:20;;;;;;;41.40;27.30;;;15.20;30.50;;;;;;5092898;28;20724;-66
2022/04/22 08:41:48;;;;;;;47.40;27.40;;;15.20;30.00;;;;;;5105788;28;20204;-67
2022/04/22 08:44:14;;;;;;;49.13;29.83;;;15.60;29.20;;;;;;5103120;28;20669;-67
2022/04/22 08:52:11;;;;;;;45.60;28.90;;;14.60;31.90;;;;;;5092872;28;20431;-65
2022/04/22 08:54:43;;;;;;;42.10;28.77;;;14.20;32.20;;;;;;5097081;28;20483;-70
2022/04/22 08:57:09;;;;;;;43.67;28.97;;;13.90;35.20;;;;;;5096381;28;20954;-66
2022/04/22 08:59:35;;;;;;;45.50;28.33;;;14.50;32.80;;;;;;5101599;28;20447;-67
2022/04/22 09:02:02;;;;;;;38.53;25.93;;;14.90;31.60;;;;;;5097419;28;20899;-67
2022/04/22 09:04:28;;;;;;;47.80;27.73;;;15.20;30.30;;;;;;5100989;28;20218;-68
2022/04/22 09:06:55;;;;;;;38.87;27.13;;;15.30;30.40;;;;;;5100076;28;20421;-67
2022/04/22 09:09:21;;;;;;;47.80;28.07;;;16.10;28.70;;;;;;5092487;28;20167;-67
2022/04/22 09:11:47;;;;;;;43.57;27.70;;;16.10;29.00;;;;;;5092390;28;20413;-69
2022/04/22 09:14:19;;;;;;;44.97;26.43;;;16.20;28.20;;;;;;5106109;28;20201;-68
2022/04/22 09:16:45;;;;;;;42.50;26.70;;;16.10;29.50;;;;;;5101349;28;20525;-68
2022/04/22 09:19:11;;;;;;;39.10;26.67;;;16.20;28.90;;;;;;5094135;28;20515;-68
2022/04/22 09:21:38;;;;;;;37.50;26.37;;;16.80;28.30;;;;;;5095069;28;20452;-69
2022/04/22 09:24:14;;;;;;;45.23;25.50;;;16.80;27.80;;;;;;5102487;28;20454;-68
2022/04/22 09:26:40;;;;;;;41.47;25.93;;;15.80;29.00;;;;;;5100932;28;20932;-68
2022/04/22 09:29:06;;;;;;;39.30;25.67;;;16.30;29.00;;;;;;5112526;28;20407;-68
2022/04/22 09:31:53;;;;;;;40.47;25.67;;;16.70;27.70;;;;;;5112378;28;20433;-68
2022/04/22 09:34:36;;;;;;;42.63;25.87;;;16.70;27.00;;;;;;5102372;28;20475;-68
2022/04/22 09:42:55;;;;;;;43.87;24.93;;;17.60;26.10;;;;;;5099354;28;20403;-68
2022/04/22 09:45:33;;;;;;;37.87;24.63;;;17.60;26.00;;;;;;5099650;28;20440;-70
2022/04/22 09:47:59;;;;;;;35.53;26.17;;;17.90;26.20;;;;;;5105936;28;20937;-68
2022/04/22 09:50:45;;;;;;;33.90;24.17;;;17.70;26.50;;;;;;5095726;28;20453;-68
2022/04/22 09:53:12;;;;;;;39.90;26.47;;;17.70;25.90;;;;;;5100526;28;20603;-68
2022/04/22 09:55:53;;;;;;;35.80;24.07;;;18.30;25.30;;;;;;5105258;28;20507;-68
2022/04/22 09:58:26;;;;;;;35.30;25.87;;;18.10;25.30;;;;;;5106872;28;20484;-69
2022/04/22 10:01:00;;;;;;;35.27;25.00;;;16.90;26.30;;;;;;5101281;28;20971;-68
2022/04/22 10:03:37;;;;;;;38.17;25.37;;;17.50;26.80;;;;;;5098588;28;20442;-68
2022/04/22 10:06:05;;;;;;;34.17;24.23;;;16.50;26.30;;;;;;5100807;28;20807;-68
2022/04/22 10:08:35;;;;;;;39.73;26.50;;;15.80;28.80;;;;;;5093739;28;20492;-68
2022/04/22 10:11:03;;;;;;;39.80;24.30;;;16.80;27.40;;;;;;5101858;28;20545;-68
2022/04/22 10:13:41;;;;;;;32.80;24.57;;;17.60;26.20;;;;;;5106700;28;20477;-69
2022/04/22 10:16:10;;;;;;;35.80;24.23;;;17.60;25.70;;;;;;5101528;28;20427;-68
2022/04/22 10:18:41;;;;;;;39.13;23.10;;;17.30;28.00;;;;;;5091455;28;20396;-67
2022/04/22 10:21:07;;;;;;;35.30;23.17;;;17.40;25.20;;;;;;5091263;28;20843;-68
2022/04/22 10:23:33;;;;;;;35.23;23.20;;;17.70;26.70;;;;;;5104272;28;20442;-68
2022/04/22 10:25:59;;;;;;;31.23;22.93;;;18.50;24.90;;;;;;5101478;28;20936;-68
2022/04/22 10:28:27;;;;;;;31.57;22.00;;;18.30;26.00;;;;;;5111557;28;20164;-68
2022/04/22 10:30:54;;;;;;;31.70;23.60;;;19.00;24.10;;;;;;5111368;28;20501;-69
2022/04/22 10:33:43;;;;;;;30.90;22.50;;;19.50;24.60;;;;;;5106802;28;20453;-68
2022/04/22 10:36:16;;;;;;;31.33;21.10;;;18.90;23.20;;;;;;5098360;28;20435;-68
2022/04/22 10:38:45;;;;;;;30.27;22.13;;;19.30;23.80;;;;;;5109817;28;20401;-68
2022/04/22 10:41:19;;;;;;;34.50;22.23;;;19.70;23.90;;;;;;5103533;28;20496;-68
2022/04/22 10:49:44;;;;;;;28.33;20.07;;;20.80;22.40;;;;;;5108730;28;20859;-67
2022/04/22 10:52:18;;;;;;;28.20;20.67;;;21.20;22.00;;;;;;5102828;28;20445;-70
2022/04/22 10:54:52;;;;;;;28.00;20.30;;;21.60;22.30;;;;;;5100908;28;20499;-68
2022/04/22 10:57:25;;;;;;;30.17;20.53;;;21.40;19.80;;;;;;5110486;28;20439;-68
2022/04/22 11:00:06;;;;;;;29.83;20.23;;;20.30;23.60;;;;;;5102287;28;20461;-68
2022/04/22 11:02:36;;;;;;;26.80;18.80;;;21.20;21.90;;;;;;5099613;28;20486;-69
2022/04/22 11:05:19;;;;;;;32.80;21.10;;;21.50;22.30;;;;;;5100899;28;20468;-67
2022/04/22 11:07:51;;;;;;;32.70;20.37;;;21.50;22.10;;;;;;5106946;28;20432;-68
2022/04/22 11:10:17;;;;;;;24.83;19.23;;;21.80;21.40;;;;;;5110743;28;20530;-68
2022/04/22 11:13:24;;;;;;;26.83;18.90;;;22.10;20.70;;;;;;5101001;28;20426;-68
2022/04/22 11:15:51;;;;;;;24.90;18.57;;;22.50;21.00;;;;;;5096606;28;20440;-68
2022/04/22 11:18:18;;;;;;;27.90;18.30;;;22.80;20.30;;;;;;5103442;28;20441;-69
2022/04/22 11:20:59;;;;;;;24.80;19.00;;;23.10;19.80;;;;;;5105299;28;20516;-69
2022/04/22 11:23:37;;;;;;;23.43;18.63;;;24.30;19.70;;;;;;5104535;28;20412;-68
2022/04/22 11:26:04;;;;;;;27.63;16.47;;;23.70;18.80;;;;;;5114931;28;20407;-68
2022/04/22 11:28:38;;;;;;;22.33;17.97;;;24.40;18.40;;;;;;5106531;28;20497;-68
2022/04/22 11:31:07;;;;;;;24.33;15.30;;;24.90;16.60;;;;;;5112123;28;20421;-68
2022/04/22 11:34:03;;;;;;;25.63;16.40;;;25.40;16.80;;;;;;5114555;28;20853;-68
2022/04/22 11:36:29;;;;;;;21.20;15.50;;;25.80;17.00;;;;;;5109615;28;20489;-69
2022/04/22 11:38:55;;;;;;;19.40;13.87;;;27.10;15.00;;;;;;5108021;28;20459;-68
2022/04/22 11:41:22;;;;;;;22.30;15.97;;;28.20;12.80;;;;;;5094456;28;20470;-69
2022/04/22 11:43:48;;;;;;;17.57;14.50;;;27.80;12.60;;;;;;5093819;28;20461;-69
2022/04/22 11:46:16;;;;;;;18.20;14.97;;;27.70;14.00;;;;;;5101259;28;20419;-69
2022/04/22 11:48:49;;;;;;;18.53;14.20;;;26.00;14.00;;;;;;5112795;28;20423;-69
2022/04/22 11:51:16;;;;;;;18.23;14.77;;;26.50;16.60;;;;;;5097015;28;20397;-68
2022/04/22 11:53:50;;;;;;;17.00;15.13;;;26.40;13.20;;;;;;5113540;28;20793;-68
2022/04/22 11:56:18;;;;;;;20.80;14.77;;;25.30;16.10;;;;;;5104843;28;20931;-69
2022/04/22 11:58:43;;;;;;;21.53;15.10;;;25.10;16.00;;;;;;5114038;28;20767;-69
2022/04/22 12:06:58;;;;;;;17.07;13.93;;;26.00;13.70;;;;;;5096519;28;20807;-68
2022/04/22 12:09:24;;;;;;;18.60;14.87;;;25.40;15.80;;;;;;5113003;28;20404;-69
2022/04/22 12:11:51;;;;;;;19.70;14.07;;;26.60;14.80;;;;;;5097437;28;21138;-69
2022/04/22 12:14:24;;;;;;;21.50;14.13;;;26.70;14.90;;;;;;5105685;28;20470;-69
2022/04/22 12:16:57;;;;;;;19.60;13.97;;;27.70;12.20;;;;;;5105384;28;20978;-70
2022/04/22 12:19:24;;;;;;;16.37;11.07;;;28.50;12.80;;;;;;5085909;28;20454;-72
2022/04/22 12:21:50;;;;;;;27.03;12.10;;;29.30;12.80;;;;;;5112050;28;20651;-69
2022/04/22 12:24:16;;;;;;;16.50;13.30;;;29.50;12.50;;;;;;5100146;28;20741;-69
2022/04/22 12:26:44;;;;;;;15.83;12.90;;;30.00;11.30;;;;;;5097716;28;20514;-69
2022/04/22 12:29:17;;;;;;;18.87;12.60;;;29.20;11.00;;;;;;5111154;28;20227;-69
2022/04/22 12:31:45;;;;;;;14.50;11.73;;;29.80;10.80;;;;;;5102008;28;20436;-70
2022/04/22 12:34:24;;;;;;;15.30;12.40;;;30.70;9.00;;;;;;5108802;28;20488;-70
2022/04/22 12:36:52;;;;;;;21.63;11.70;;;31.60;8.40;;;;;;5113373;28;20807;-69
2022/04/22 12:39:38;;;;;;;11.90;10.67;;;31.50;9.70;;;;;;5110205;28;20966;-69
2022/04/22 12:42:26;;;;;;;16.00;12.10;;;31.20;9.80;;;;;;5102250;28;20405;-69
2022/04/22 12:54:04;;;;;;;18.00;11.50;;;29.50;9.80;;;;;;5030291;28;20522;-71
2022/04/22 12:56:29;;;;;;;15.60;11.83;;;28.70;12.40;;;;;;5047907;28;20440;-69
2022/04/22 12:58:57;;;;;;;16.23;11.40;;;28.60;10.70;;;;;;5049364;28;20410;-69
2022/04/22 13:01:32;;;;;;;15.47;12.73;;;28.30;13.10;;;;;;5048207;28;20287;-70
2022/04/22 13:03:58;;;;;;;17.30;13.53;;;26.60;14.10;;;;;;5049624;28;20564;-69
2022/04/22 13:06:42;;;;;;;21.00;15.40;;;25.30;16.00;;;;;;5048940;28;20430;-69
2022/04/22 13:09:10;;;;;;;23.23;15.10;;;25.60;16.10;;;;;;5050030;28;20187;-69
2022/04/22 13:11:36;;;;;;;18.57;14.40;;;25.80;15.00;;;;;;5048983;28;20430;-69
2022/04/22 13:14:04;;;;;;;17.50;13.30;;;26.60;14.20;;;;;;5032995;28;20449;-69
2022/04/22 13:16:30;;;;;;;17.97;13.33;;;26.70;14.20;;;;;;5040188;28;20460;-69
2022/04/22 13:18:56;;;;;;;17.23;13.70;;;26.90;14.50;;;;;;5049338;28;20430;-70
2022/04/22 13:21:22;;;;;;;17.10;13.10;;;27.60;15.60;;;;;;5064563;28;21111;-70
2022/04/22 13:23:48;;;;;;;15.73;12.03;;;28.00;12.40;;;;;;5100749;28;20585;-71
2022/04/22 13:26:13;;;;;;;18.73;14.23;;;28.50;12.30;;;;;;5105594;28;20922;-69
2022/04/22 13:28:39;;;;;;;19.17;12.37;;;26.40;13.10;;;;;;5090526;28;20188;-69
2022/04/22 13:31:05;;;;;;;14.77;13.10;;;25.70;15.10;;;;;;5101248;28;20221;-70
2022/04/22 13:33:34;;;;;;;17.00;12.73;;;26.70;13.70;;;;;;5106418;28;20269;-69
2022/04/22 13:36:01;;;;;;;15.10;12.27;;;28.10;12.80;;;;;;5101628;28;20185;-70
2022/04/22 13:38:28;;;;;;;14.37;11.33;;;28.50;12.10;;;;;;5102502;28;20408;-70
2022/04/22 13:40:53;;;;;;;14.00;11.03;;;29.20;13.00;;;;;;5104215;28;20549;-70
2022/04/22 13:43:19;;;;;;;12.40;10.50;;;30.70;10.50;;;;;;5094929;28;20482;-70
2022/04/22 13:53:57;;;;;;;19.27;11.70;;;27.40;12.80;;;;;;5091995;28;20511;-70